Time;durP1;ratioP1;P1;durP2;ratioP2;P2;SDS_P1;SDS_P2;PMS_P1;PMS_P2;Temp;Humidity;BMP_temperature;BMP_pressure;BME280_temperature;BME280_humidity;BME280_pressure;Samples;Min_cycle;Max_cycle;Signal;HPM_P1;HPM_P2
2022/05/04 00:01:26;;;;;;;5.03;0.90;;;8.10;99.90;;;;;;5016831;28;20044;-75
2022/05/04 00:03:51;;;;;;;2.72;0.68;;;8.10;99.90;;;;;;4997844;28;20034;-75
2022/05/04 00:06:17;;;;;;;2.85;0.55;;;8.10;99.90;;;;;;5009453;28;20040;-75
2022/05/04 00:08:43;;;;;;;2.28;0.77;;;8.10;99.90;;;;;;5016069;28;20466;-75
2022/05/04 00:11:08;;;;;;;3.47;0.70;;;8.20;99.90;;;;;;5018014;28;20033;-76
2022/05/04 00:13:34;;;;;;;1.50;0.50;;;8.20;99.90;;;;;;5020261;28;20132;-76
2022/05/04 00:16:03;;;;;;;3.97;1.20;;;8.20;99.90;;;;;;5020168;28;20386;-75
2022/05/04 00:18:29;;;;;;;2.20;0.70;;;8.20;99.90;;;;;;5020240;28;20107;-76
2022/05/04 00:20:55;;;;;;;4.80;0.77;;;8.20;99.90;;;;;;5018443;28;20033;-76
2022/05/04 00:23:21;;;;;;;4.70;1.00;;;8.20;99.90;;;;;;5003684;28;20025;-76
2022/05/04 00:25:46;;;;;;;7.60;1.20;;;8.30;99.90;;;;;;5020679;28;20037;-76
2022/05/04 00:28:12;;;;;;;3.88;0.70;;;8.30;99.90;;;;;;5018011;28;20033;-75
2022/05/04 00:30:38;;;;;;;4.43;0.77;;;8.30;99.90;;;;;;5020053;28;20056;-76
2022/05/04 00:33:03;;;;;;;2.67;0.77;;;8.30;99.90;;;;;;5003597;28;20735;-75
2022/05/04 00:35:30;;;;;;;3.53;0.88;;;8.30;99.90;;;;;;5035155;28;20570;-76
2022/05/04 00:37:55;;;;;;;4.28;1.08;;;8.30;99.90;;;;;;5033699;28;20033;-76
2022/05/04 00:40:21;;;;;;;3.78;0.70;;;8.30;99.90;;;;;;5019688;28;20044;-76
2022/05/04 00:42:47;;;;;;;4.47;1.08;;;8.40;99.90;;;;;;5018741;28;20072;-77
2022/05/04 00:45:12;;;;;;;5.38;1.02;;;8.30;99.90;;;;;;5019174;28;20124;-76
2022/05/04 00:47:38;;;;;;;5.25;1.67;;;8.30;99.90;;;;;;5020147;28;20497;-76
2022/05/04 00:50:05;;;;;;;5.93;1.92;;;8.40;99.90;;;;;;5019170;28;20442;-76
2022/05/04 00:52:32;;;;;;;5.55;1.05;;;8.40;99.90;;;;;;5034717;28;20045;-75
2022/05/04 00:54:59;;;;;;;4.85;1.10;;;8.40;99.90;;;;;;5013753;28;20048;-76
2022/05/04 01:00:12;;;;;;;4.60;1.08;;;8.40;99.90;;;;;;5018834;28;20032;-76
2022/05/04 01:02:39;;;;;;;7.88;1.10;;;8.40;99.90;;;;;;5019081;28;20417;-76
2022/05/04 01:05:09;;;;;;;4.25;1.00;;;8.40;99.90;;;;;;5017774;28;20025;-76
2022/05/04 01:07:36;;;;;;;5.00;0.75;;;8.40;99.90;;;;;;5003569;28;20032;-76
2022/05/04 01:10:03;;;;;;;6.28;0.80;;;8.40;99.90;;;;;;5019587;28;20195;-76
2022/05/04 01:12:28;;;;;;;4.03;0.70;;;8.40;99.90;;;;;;5019221;28;20121;-76
2022/05/04 01:14:54;;;;;;;2.75;0.80;;;8.40;99.90;;;;;;5019407;28;20082;-75
2022/05/04 01:17:20;;;;;;;3.90;0.73;;;8.40;99.90;;;;;;5018579;28;20060;-75
2022/05/04 01:19:45;;;;;;;4.40;1.30;;;8.40;99.90;;;;;;5019540;28;20037;-76
2022/05/04 01:22:11;;;;;;;3.85;0.80;;;8.40;99.90;;;;;;5018092;28;20116;-76
2022/05/04 01:24:38;;;;;;;4.75;0.80;;;8.40;99.90;;;;;;4996849;28;20040;-76
2022/05/04 01:27:09;;;;;;;8.80;1.60;;;8.40;99.90;;;;;;5002212;28;20117;-75
2022/05/04 01:29:35;;;;;;;3.78;0.90;;;8.30;99.90;;;;;;5018697;28;20236;-76
2022/05/04 01:32:00;;;;;;;4.55;1.52;;;8.40;99.90;;;;;;4991729;28;20022;-76
2022/05/04 01:34:28;;;;;;;6.43;1.17;;;8.30;99.90;;;;;;5018134;28;20486;-75
2022/05/04 01:36:53;;;;;;;4.07;1.00;;;8.30;99.90;;;;;;5017949;28;20504;-76
2022/05/04 01:39:19;;;;;;;4.00;1.30;;;8.30;99.90;;;;;;5017457;28;20033;-76
2022/05/04 01:42:02;;;;;;;4.97;0.95;;;8.30;99.90;;;;;;5017104;28;20116;-76
2022/05/04 01:44:31;;;;;;;5.00;1.20;;;8.30;99.90;;;;;;5018796;28;20033;-76
2022/05/04 01:46:57;;;;;;;9.27;1.45;;;8.30;99.90;;;;;;5015577;28;20033;-76
2022/05/04 01:49:23;;;;;;;3.90;1.05;;;8.20;99.90;;;;;;5016904;28;20021;-76
2022/05/04 01:51:48;;;;;;;4.07;0.65;;;8.20;99.90;;;;;;5019048;28;20075;-76
2022/05/04 01:54:14;;;;;;;7.07;1.20;;;8.20;99.90;;;;;;5018288;28;20037;-76
2022/05/04 01:56:40;;;;;;;6.50;1.40;;;8.20;99.90;;;;;;5001739;28;20110;-76
2022/05/04 01:59:05;;;;;;;6.25;1.38;;;8.20;99.90;;;;;;5018353;28;20038;-76
2022/05/04 02:01:32;;;;;;;5.18;0.82;;;8.10;99.90;;;;;;5017886;28;20025;-76
2022/05/04 02:03:59;;;;;;;3.80;0.80;;;8.10;99.90;;;;;;5018203;28;20037;-76
2022/05/04 02:06:25;;;;;;;4.13;0.80;;;8.10;99.90;;;;;;5018691;28;20536;-76
2022/05/04 02:08:51;;;;;;;6.70;1.70;;;8.10;99.90;;;;;;5018130;28;20042;-75
2022/05/04 02:11:17;;;;;;;5.68;1.33;;;8.10;99.90;;;;;;5018206;28;20125;-75
2022/05/04 02:13:43;;;;;;;3.75;0.82;;;8.10;99.90;;;;;;5012209;28;20482;-75
2022/05/04 02:16:09;;;;;;;3.97;1.17;;;8.10;99.90;;;;;;5017404;28;20083;-76
2022/05/04 02:18:35;;;;;;;5.07;1.58;;;8.10;99.90;;;;;;5018358;28;20029;-76
2022/05/04 02:21:00;;;;;;;5.07;1.42;;;8.00;99.90;;;;;;5018222;28;20482;-76
2022/05/04 02:23:26;;;;;;;3.70;0.70;;;8.10;99.90;;;;;;5018425;28;20033;-75
2022/05/04 02:25:52;;;;;;;3.75;0.90;;;8.00;99.90;;;;;;5016741;28;20048;-76
2022/05/04 02:28:18;;;;;;;6.78;1.45;;;8.00;99.90;;;;;;5001749;28;20139;-76
2022/05/04 02:30:44;;;;;;;5.72;1.17;;;8.00;99.90;;;;;;5013928;28;20710;-76
2022/05/04 02:33:10;;;;;;;5.10;1.02;;;8.00;99.90;;;;;;5017870;28;20042;-76
2022/05/04 02:38:21;;;;;;;6.25;1.27;;;7.90;99.90;;;;;;5017014;28;20144;-76
2022/05/04 02:40:48;;;;;;;4.97;1.10;;;7.90;99.90;;;;;;5016469;28;20037;-76
2022/05/04 02:43:14;;;;;;;3.78;1.10;;;7.90;99.90;;;;;;5002003;28;20466;-75
2022/05/04 02:45:40;;;;;;;6.32;1.10;;;7.90;99.90;;;;;;5017530;28;20140;-76
2022/05/04 02:48:07;;;;;;;6.65;0.90;;;7.90;99.90;;;;;;5017371;28;20030;-76
2022/05/04 02:50:33;;;;;;;6.35;1.30;;;7.90;99.90;;;;;;5017329;28;20060;-75
2022/05/04 02:52:59;;;;;;;6.13;1.00;;;7.80;99.90;;;;;;5017174;28;20041;-76
2022/05/04 02:55:25;;;;;;;5.22;1.48;;;7.90;99.90;;;;;;5024420;28;20056;-75
2022/05/04 02:57:50;;;;;;;3.38;0.70;;;7.80;99.90;;;;;;5001191;28;20111;-76
2022/05/04 03:00:16;;;;;;;4.05;0.75;;;7.80;99.90;;;;;;4996104;28;20127;-76
2022/05/04 03:02:42;;;;;;;6.05;1.17;;;7.80;99.90;;;;;;5010705;28;20065;-76
2022/05/04 03:05:09;;;;;;;3.15;0.70;;;7.80;99.90;;;;;;5017480;28;20110;-76
2022/05/04 03:07:35;;;;;;;4.32;0.90;;;7.80;99.90;;;;;;4994515;28;20496;-75
2022/05/04 03:10:01;;;;;;;3.83;0.65;;;7.80;99.90;;;;;;5017623;28;20199;-75
2022/05/04 03:12:27;;;;;;;3.65;1.02;;;7.70;99.90;;;;;;5017491;28;20030;-76
2022/05/04 03:14:53;;;;;;;8.65;1.50;;;7.70;99.90;;;;;;5016587;28;20425;-76
2022/05/04 03:17:19;;;;;;;5.45;0.90;;;7.70;99.90;;;;;;5010765;28;20098;-76
2022/05/04 03:19:45;;;;;;;5.63;0.75;;;7.70;99.90;;;;;;5016533;28;20060;-75
2022/05/04 03:22:11;;;;;;;5.07;0.70;;;7.60;99.90;;;;;;5015721;28;20033;-76
2022/05/04 03:24:38;;;;;;;5.88;1.52;;;7.60;99.90;;;;;;5015912;28;20109;-76
2022/05/04 03:27:04;;;;;;;4.07;1.02;;;7.60;99.90;;;;;;5016103;28;20148;-76
2022/05/04 03:29:30;;;;;;;5.60;1.17;;;7.50;99.90;;;;;;4995455;28;20029;-75
2022/05/04 03:31:56;;;;;;;5.15;0.88;;;7.50;99.90;;;;;;5016255;28;20037;-76
2022/05/04 03:34:21;;;;;;;3.50;1.15;;;7.50;99.90;;;;;;5015776;28;20111;-76
2022/05/04 03:36:47;;;;;;;4.32;0.80;;;7.50;99.90;;;;;;5016721;28;20025;-75
2022/05/04 03:39:13;;;;;;;5.63;1.00;;;7.50;99.90;;;;;;5015878;28;20407;-75
2022/05/04 03:41:39;;;;;;;7.40;1.10;;;7.40;99.90;;;;;;5016414;28;20073;-76
2022/05/04 03:44:05;;;;;;;4.18;1.15;;;7.40;99.90;;;;;;5015492;28;20025;-76
2022/05/04 03:46:47;;;;;;;2.95;0.93;;;7.50;99.90;;;;;;5017213;28;20030;-75
2022/05/04 03:49:14;;;;;;;3.92;0.90;;;7.40;99.90;;;;;;5016131;28;20123;-76
2022/05/04 03:51:40;;;;;;;6.55;1.67;;;7.40;99.90;;;;;;5016338;28;20183;-76
2022/05/04 03:54:06;;;;;;;5.78;1.08;;;7.40;99.90;;;;;;5011679;28;20132;-76
2022/05/04 03:56:32;;;;;;;6.47;1.33;;;7.50;99.90;;;;;;5017019;28;20263;-76
2022/05/04 03:58:58;;;;;;;6.07;0.75;;;7.40;99.90;;;;;;5016020;28;20045;-76
2022/05/04 04:01:24;;;;;;;4.95;1.00;;;7.40;99.90;;;;;;5016273;28;20022;-76
2022/05/04 04:03:49;;;;;;;6.97;1.30;;;7.40;99.90;;;;;;5016201;28;20071;-75
2022/05/04 04:06:15;;;;;;;5.88;0.85;;;7.40;99.90;;;;;;5017218;28;20048;-75
2022/05/04 04:08:41;;;;;;;4.35;0.65;;;7.40;99.90;;;;;;5010632;28;20037;-75
2022/05/04 04:11:07;;;;;;;6.72;1.00;;;7.40;99.90;;;;;;5016455;28;20045;-75
2022/05/04 04:13:32;;;;;;;5.00;0.90;;;7.40;99.90;;;;;;5016352;28;20493;-75
2022/05/04 04:15:58;;;;;;;3.47;1.00;;;7.30;99.90;;;;;;5015906;28;20033;-76
2022/05/04 04:18:25;;;;;;;4.22;0.93;;;7.30;99.90;;;;;;5023538;28;20034;-75
2022/05/04 04:23:36;;;;;;;7.00;1.35;;;7.30;99.90;;;;;;5032328;28;20032;-75
2022/05/04 04:26:04;;;;;;;5.38;1.10;;;7.30;99.90;;;;;;5009745;28;20108;-76
2022/05/04 04:28:31;;;;;;;3.08;1.00;;;7.30;99.90;;;;;;4994062;28;20107;-76
2022/05/04 04:30:56;;;;;;;3.70;1.33;;;7.30;99.90;;;;;;4992903;28;20025;-76
2022/05/04 04:33:26;;;;;;;4.30;1.08;;;7.30;99.90;;;;;;4999206;28;20085;-75
2022/05/04 04:35:52;;;;;;;4.95;1.08;;;7.30;99.90;;;;;;5009528;28;20046;-76
2022/05/04 04:38:18;;;;;;;5.75;1.00;;;7.30;99.90;;;;;;4995135;28;20175;-76
2022/05/04 04:40:45;;;;;;;5.32;0.70;;;7.40;99.90;;;;;;5014138;28;20120;-75
2022/05/04 04:43:11;;;;;;;5.13;1.52;;;7.40;99.90;;;;;;5015125;28;20475;-76
2022/05/04 04:45:37;;;;;;;4.38;0.52;;;7.40;99.90;;;;;;5014821;28;20545;-75
2022/05/04 04:48:02;;;;;;;5.82;1.08;;;7.40;99.90;;;;;;5014918;28;20060;-76
2022/05/04 04:50:28;;;;;;;5.40;1.20;;;7.40;99.90;;;;;;5000598;28;20033;-76
2022/05/04 04:52:54;;;;;;;3.85;0.68;;;7.40;99.90;;;;;;5015306;28;20038;-76
2022/05/04 04:55:20;;;;;;;4.22;1.00;;;7.30;99.90;;;;;;5011023;28;20068;-75
2022/05/04 04:57:45;;;;;;;9.43;1.40;;;7.40;99.90;;;;;;5017373;28;20131;-76
2022/05/04 05:00:11;;;;;;;3.92;1.52;;;7.30;99.90;;;;;;5019061;28;20088;-76
2022/05/04 05:02:37;;;;;;;7.72;0.65;;;7.30;99.90;;;;;;5018743;28;20042;-76
2022/05/04 05:05:03;;;;;;;3.63;0.80;;;7.40;99.90;;;;;;5013573;28;20237;-76
2022/05/04 05:07:29;;;;;;;5.60;1.40;;;7.30;99.90;;;;;;5018788;28;20040;-76
2022/05/04 05:09:55;;;;;;;6.85;1.30;;;7.30;99.90;;;;;;5018761;28;20029;-75
2022/05/04 05:12:21;;;;;;;3.88;0.90;;;7.20;99.90;;;;;;5017704;28;20460;-75
2022/05/04 05:17:32;;;;;;;9.18;1.33;;;7.30;99.90;;;;;;5018373;28;20076;-75
2022/05/04 05:19:58;;;;;;;3.70;0.90;;;7.40;99.90;;;;;;5018690;28;20341;-76
2022/05/04 05:22:24;;;;;;;3.65;1.10;;;7.40;99.90;;;;;;5017304;28;20033;-76
2022/05/04 05:24:49;;;;;;;4.10;0.98;;;7.40;99.90;;;;;;5020182;28;20030;-76
2022/05/04 05:27:15;;;;;;;6.03;1.00;;;7.50;99.90;;;;;;5016972;28;20033;-76
2022/05/04 05:29:41;;;;;;;2.28;0.70;;;7.50;99.90;;;;;;5018420;28;20029;-76
2022/05/04 05:32:07;;;;;;;3.40;0.85;;;7.60;99.90;;;;;;5018449;28;20363;-76
2022/05/04 05:34:33;;;;;;;2.80;0.80;;;7.50;99.90;;;;;;5018321;28;20048;-75
2022/05/04 05:37:03;;;;;;;4.28;0.70;;;7.60;99.90;;;;;;5017731;28;20160;-77
2022/05/04 05:39:28;;;;;;;4.95;0.80;;;7.60;99.90;;;;;;5035748;28;20060;-76
2022/05/04 05:41:54;;;;;;;7.10;1.30;;;7.70;99.90;;;;;;5017721;28;20057;-76
2022/05/04 05:44:20;;;;;;;2.63;0.60;;;7.70;99.90;;;;;;5014982;28;21659;-76
2022/05/04 05:46:45;;;;;;;5.43;1.13;;;7.80;99.90;;;;;;5017959;28;20228;-76
2022/05/04 05:49:11;;;;;;;3.65;0.77;;;7.90;99.90;;;;;;5016676;28;20410;-76
2022/05/04 05:51:37;;;;;;;3.28;0.80;;;8.00;99.90;;;;;;5017731;28;20471;-76
2022/05/04 05:54:02;;;;;;;5.68;1.20;;;8.10;99.90;;;;;;5001093;28;20382;-76
2022/05/04 05:56:28;;;;;;;5.57;0.90;;;8.10;99.90;;;;;;5014556;28;20045;-76
2022/05/04 05:58:53;;;;;;;3.20;0.77;;;8.30;99.90;;;;;;5017166;28;20134;-77
2022/05/04 06:01:19;;;;;;;2.97;0.70;;;8.50;99.90;;;;;;5016426;28;20028;-76
2022/05/04 06:03:45;;;;;;;3.38;0.90;;;8.50;99.90;;;;;;5017283;28;20479;-76
2022/05/04 06:06:10;;;;;;;5.50;1.33;;;8.60;99.90;;;;;;5016180;28;20178;-76
2022/05/04 06:08:36;;;;;;;6.50;1.20;;;8.50;99.90;;;;;;5016668;28;20120;-76
2022/05/04 06:11:02;;;;;;;3.40;0.80;;;8.60;99.90;;;;;;5016835;28;20048;-76
2022/05/04 06:13:27;;;;;;;5.45;1.33;;;8.70;99.90;;;;;;5015629;28;20068;-76
2022/05/04 06:15:53;;;;;;;4.13;1.15;;;8.80;99.90;;;;;;5012566;28;20049;-76
2022/05/04 06:18:19;;;;;;;4.80;0.90;;;9.10;99.90;;;;;;5017818;28;20064;-76
2022/05/04 06:20:44;;;;;;;6.05;0.95;;;9.30;99.90;;;;;;5017460;28;20037;-76
2022/05/04 06:23:10;;;;;;;3.78;1.13;;;9.30;99.90;;;;;;5015875;28;20031;-76
2022/05/04 06:25:36;;;;;;;5.72;1.17;;;9.50;99.90;;;;;;5010582;28;20052;-76
2022/05/04 06:28:03;;;;;;;3.63;0.70;;;9.80;99.90;;;;;;5015712;28;20029;-76
2022/05/04 06:35:57;;;;;;;4.45;0.75;;;10.40;99.90;;;;;;5030677;28;20492;-76
2022/05/04 06:38:22;;;;;;;4.32;0.80;;;10.60;99.90;;;;;;5015526;28;20166;-76
2022/05/04 06:40:48;;;;;;;2.78;0.60;;;10.80;99.90;;;;;;5015309;28;20481;-76
2022/05/04 06:43:14;;;;;;;5.82;0.98;;;11.00;99.90;;;;;;5016960;28;20466;-76
2022/05/04 06:45:39;;;;;;;7.38;1.45;;;10.70;99.90;;;;;;5016620;28;20048;-76
2022/05/04 06:48:06;;;;;;;4.43;0.85;;;10.60;99.90;;;;;;5016603;28;20021;-76
2022/05/04 06:50:31;;;;;;;6.25;0.80;;;10.70;99.90;;;;;;5014333;28;20034;-77
2022/05/04 06:52:57;;;;;;;4.90;1.05;;;10.70;99.90;;;;;;5014584;28;20402;-76
2022/05/04 06:55:22;;;;;;;4.95;1.10;;;10.50;99.90;;;;;;5014947;28;20053;-77
2022/05/04 06:57:48;;;;;;;5.85;0.90;;;10.80;99.90;;;;;;4994713;28;20044;-76
2022/05/04 07:00:14;;;;;;;4.63;1.05;;;11.00;99.90;;;;;;5015071;28;20055;-76
2022/05/04 07:02:40;;;;;;;9.10;1.33;;;10.70;99.90;;;;;;5001687;28;20057;-77
2022/05/04 07:05:06;;;;;;;5.72;1.52;;;10.80;99.90;;;;;;5016316;28;20033;-76
2022/05/04 07:07:33;;;;;;;4.88;1.00;;;10.60;99.90;;;;;;5017877;28;20041;-77
2022/05/04 07:09:59;;;;;;;5.72;0.98;;;11.00;99.90;;;;;;5017357;28;20465;-76
2022/05/04 07:12:25;;;;;;;8.32;2.05;;;11.10;99.90;;;;;;5030564;28;20386;-76
2022/05/04 07:14:53;;;;;;;8.48;1.85;;;10.70;99.90;;;;;;5012755;28;20091;-76
2022/05/04 07:17:19;;;;;;;6.20;0.80;;;10.80;99.90;;;;;;5000290;28;20034;-77
2022/05/04 07:19:46;;;;;;;6.25;0.90;;;10.80;99.90;;;;;;5015261;28;20060;-76
2022/05/04 07:22:12;;;;;;;6.20;1.30;;;11.10;99.90;;;;;;5015398;28;20132;-76
2022/05/04 07:24:38;;;;;;;6.40;1.48;;;10.90;99.90;;;;;;5015497;28;20026;-77
2022/05/04 07:27:04;;;;;;;3.22;0.60;;;10.70;99.90;;;;;;5016480;28;20033;-77
2022/05/04 07:29:29;;;;;;;4.30;0.50;;;11.10;99.90;;;;;;4994572;28;20126;-77
2022/05/04 07:31:55;;;;;;;6.53;0.80;;;11.20;99.90;;;;;;4995053;28;20074;-77
2022/05/04 07:34:21;;;;;;;5.20;0.77;;;11.50;99.90;;;;;;5014337;28;20056;-76
2022/05/04 07:36:46;;;;;;;4.35;0.70;;;11.60;99.90;;;;;;4993409;28;20108;-77
2022/05/04 07:42:21;;;;;;;3.47;0.60;;;12.00;99.90;;;;;;5014524;28;20057;-77
2022/05/04 07:44:42;;;;;;;2.55;0.45;;;12.60;99.90;;;;;;5012675;28;20454;-77
2022/05/04 07:47:07;;;;;;;4.63;1.10;;;12.80;99.90;;;;;;5013607;28;20033;-77
2022/05/04 07:49:33;;;;;;;5.75;0.77;;;12.50;99.90;;;;;;5013975;28;20084;-77
2022/05/04 07:51:58;;;;;;;4.63;0.70;;;12.70;99.90;;;;;;5013575;28;20025;-77
2022/05/04 07:54:24;;;;;;;7.47;0.90;;;12.50;99.90;;;;;;5012655;28;20708;-77
2022/05/04 07:56:49;;;;;;;8.73;1.05;;;12.30;99.90;;;;;;5008626;28;20053;-77
2022/05/04 07:59:15;;;;;;;5.85;1.05;;;11.90;99.90;;;;;;4998283;28;20152;-77
2022/05/04 08:04:25;;;;;;;6.50;1.35;;;12.20;99.90;;;;;;5013162;28;20044;-77
2022/05/04 08:06:50;;;;;;;9.77;0.93;;;12.00;99.90;;;;;;5013991;28;20033;-77
2022/05/04 08:09:17;;;;;;;4.68;1.05;;;12.00;99.90;;;;;;5013144;28;20037;-77
2022/05/04 08:11:43;;;;;;;5.32;0.70;;;12.00;99.90;;;;;;5031580;28;20037;-77
2022/05/04 08:14:10;;;;;;;6.18;1.00;;;12.10;99.90;;;;;;5013612;28;20449;-77
2022/05/04 08:16:36;;;;;;;3.35;0.80;;;12.20;99.90;;;;;;4988217;28;20057;-77
2022/05/04 08:19:03;;;;;;;5.65;1.15;;;12.20;99.90;;;;;;5012647;28;20552;-77
2022/05/04 08:21:29;;;;;;;2.55;0.60;;;11.90;99.90;;;;;;5014070;28;20040;-76
2022/05/04 08:23:55;;;;;;;3.70;0.70;;;12.30;99.90;;;;;;4999424;28;20038;-77
2022/05/04 08:26:20;;;;;;;3.45;0.50;;;13.10;99.90;;;;;;5013932;28;20036;-77
2022/05/04 08:28:46;;;;;;;1.60;0.47;;;13.60;99.90;;;;;;5014288;28;20089;-77
2022/05/04 08:31:12;;;;;;;2.05;0.40;;;13.80;99.90;;;;;;5014618;28;20040;-77
2022/05/04 08:33:37;;;;;;;3.72;0.77;;;14.10;99.90;;;;;;5018456;28;20042;-77
2022/05/04 08:36:03;;;;;;;5.05;1.00;;;13.80;99.90;;;;;;5035714;28;20035;-77
2022/05/04 08:38:29;;;;;;;3.58;0.80;;;13.20;99.90;;;;;;5019290;28;20486;-77
2022/05/04 08:40:56;;;;;;;4.03;0.80;;;14.10;99.90;;;;;;5018557;28;20151;-78
2022/05/04 08:43:24;;;;;;;3.25;0.50;;;14.10;99.90;;;;;;5019061;28;20572;-77
2022/05/04 08:45:53;;;;;;;10.13;1.73;;;14.20;99.90;;;;;;5018495;28;20052;-77
2022/05/04 08:48:22;;;;;;;9.60;2.20;;;13.00;99.90;;;;;;5020459;28;20497;-77
2022/05/04 08:50:49;;;;;;;6.38;2.17;;;12.60;99.90;;;;;;5020594;28;20272;-76
2022/05/04 08:53:16;;;;;;;5.38;1.88;;;13.00;99.90;;;;;;5015735;28;20124;-76
2022/05/04 08:55:43;;;;;;;6.00;1.23;;;12.50;99.90;;;;;;5018926;28;20797;-77
2022/05/04 08:58:09;;;;;;;3.28;0.73;;;13.10;99.90;;;;;;5017139;28;20132;-76
2022/05/04 09:00:35;;;;;;;6.13;0.60;;;13.80;99.90;;;;;;5018308;28;20033;-76
2022/05/04 09:03:00;;;;;;;2.58;0.40;;;14.40;99.90;;;;;;4997092;28;20087;-77
2022/05/04 09:05:27;;;;;;;5.45;1.00;;;14.60;99.90;;;;;;5018571;28;20042;-76
2022/05/04 09:07:56;;;;;;;4.95;1.48;;;13.90;99.90;;;;;;5001764;28;20120;-76
2022/05/04 09:10:34;;;;;;;5.93;1.52;;;13.20;99.90;;;;;;5018910;28;20063;-77
2022/05/04 09:13:00;;;;;;;5.82;1.42;;;13.20;99.90;;;;;;5018051;28;20033;-77
2022/05/04 09:15:28;;;;;;;2.30;0.60;;;13.90;99.90;;;;;;5002612;28;20041;-76
2022/05/04 09:18:06;;;;;;;5.70;1.63;;;14.20;99.90;;;;;;4996830;28;20041;-77
2022/05/04 09:20:49;;;;;;;6.25;1.52;;;13.50;99.90;;;;;;5018261;28;20044;-76
2022/05/04 09:23:19;;;;;;;6.25;2.20;;;13.10;99.90;;;;;;4986729;28;20065;-76
2022/05/04 09:25:48;;;;;;;6.07;1.33;;;13.50;99.90;;;;;;4995217;28;20057;-77
2022/05/04 09:28:14;;;;;;;9.05;1.67;;;13.30;99.90;;;;;;5017686;28;20057;-78
2022/05/04 09:30:48;;;;;;;4.00;1.50;;;13.90;99.90;;;;;;5016456;28;20496;-77
2022/05/04 09:33:18;;;;;;;3.97;0.90;;;13.80;99.90;;;;;;5016009;28;20049;-76
2022/05/04 09:35:44;;;;;;;5.00;1.63;;;14.50;99.90;;;;;;5015771;28;20041;-78
2022/05/04 09:46:39;;;;;;;4.35;1.95;;;13.70;99.90;;;;;;5014775;28;20099;-77
2022/05/04 09:49:19;;;;;;;5.93;1.20;;;14.00;99.90;;;;;;5016514;28;20478;-77
2022/05/04 09:51:48;;;;;;;;;;;14.40;99.90;;;;;;4998738;28;20037;-77
2022/05/04 09:54:25;;;;;;;7.72;1.83;;;13.80;99.90;;;;;;5015635;28;19917;-77
2022/05/04 09:57:03;;;;;;;3.28;1.02;;;14.00;99.90;;;;;;5015392;28;21943;-78
2022/05/04 09:59:34;;;;;;;8.13;1.83;;;14.70;99.90;;;;;;5014628;28;20069;-77
2022/05/04 10:02:02;;;;;;;5.85;1.35;;;14.60;99.90;;;;;;5014830;28;20049;-78
2022/05/04 10:04:28;;;;;;;5.50;1.77;;;14.80;99.90;;;;;;5015303;28;20042;-77
2022/05/04 10:06:54;;;;;;;5.88;1.20;;;14.50;99.90;;;;;;5000301;28;20034;-76
2022/05/04 10:09:21;;;;;;;3.55;0.73;;;15.60;99.90;;;;;;5000421;28;20037;-77
2022/05/04 10:11:53;;;;;;;3.38;0.65;;;16.60;99.90;;;;;;5011330;28;20068;-78
2022/05/04 10:14:20;;;;;;;3.72;0.70;;;16.60;99.90;;;;;;5014881;28;20041;-77
2022/05/04 10:17:06;;;;;;;2.30;0.50;;;16.20;99.90;;;;;;5014154;28;20028;-78
2022/05/04 10:20:04;;;;;;;3.78;1.30;;;16.30;99.90;;;;;;5014822;28;20252;-77
2022/05/04 10:22:36;;;;;;;8.60;2.22;;;15.40;99.90;;;;;;5016056;28;20037;-78
2022/05/04 10:25:05;;;;;;;6.35;1.83;;;14.80;99.90;;;;;;5013280;28;20036;-77
2022/05/04 10:27:30;;;;;;;2.85;0.75;;;15.30;99.90;;;;;;5000713;28;20049;-77
2022/05/04 10:32:50;;;;;;;6.80;1.45;;;15.80;99.90;;;;;;5017923;28;20033;-77
2022/05/04 10:35:41;;;;;;;3.65;1.10;;;15.80;99.90;;;;;;5016602;28;20056;-77
2022/05/04 10:38:15;;;;;;;4.03;1.20;;;15.60;99.90;;;;;;5016744;28;20061;-78
2022/05/04 10:41:10;;;;;;;7.10;2.05;;;15.90;99.90;;;;;;5001494;28;20045;-77
2022/05/04 10:43:36;;;;;;;7.22;1.63;;;15.20;99.90;;;;;;5007046;28;20064;-77
2022/05/04 10:46:30;;;;;;;5.72;1.67;;;15.90;99.90;;;;;;5015320;28;20052;-77
2022/05/04 10:48:59;;;;;;;6.68;1.83;;;15.80;99.90;;;;;;5004798;28;20045;-77
2022/05/04 10:51:29;;;;;;;5.57;1.70;;;15.30;99.90;;;;;;5014510;28;20542;-78
2022/05/04 10:54:04;;;;;;;;;;;15.30;99.90;;;;;;5014249;28;20151;-77
2022/05/04 10:56:36;;;;;;;5.05;1.40;;;15.10;99.90;;;;;;5012964;28;19927;-77
2022/05/04 10:59:02;;;;;;;3.10;0.98;;;15.40;99.90;;;;;;5029339;28;20117;-77
2022/05/04 11:01:37;;;;;;;5.53;2.15;;;15.80;99.90;;;;;;5028895;28;20064;-77
2022/05/04 11:04:11;;;;;;;4.93;1.25;;;15.30;99.90;;;;;;5012728;28;20180;-76
2022/05/04 11:06:58;;;;;;;2.83;0.50;;;16.00;99.90;;;;;;5013992;28;20153;-77
2022/05/04 11:09:29;;;;;;;4.35;0.90;;;16.60;99.90;;;;;;5032323;28;21700;-77
2022/05/04 11:11:57;;;;;;;5.03;0.90;;;16.60;99.90;;;;;;5011728;28;20421;-77
2022/05/04 11:14:23;;;;;;;3.63;0.88;;;16.60;99.90;;;;;;4993352;28;20038;-77
2022/05/04 11:16:51;;;;;;;1.60;0.50;;;16.90;99.90;;;;;;5014760;28;20036;-77
2022/05/04 11:19:17;;;;;;;4.28;0.50;;;17.90;99.90;;;;;;5009796;28;20040;-78
2022/05/04 11:21:43;;;;;;;2.50;0.70;;;17.90;99.90;;;;;;4996465;28;20033;-78
2022/05/04 11:24:14;;;;;;;3.97;0.98;;;17.60;99.90;;;;;;5013025;28;20454;-78
2022/05/04 11:26:52;;;;;;;7.28;1.08;;;16.60;99.90;;;;;;5014360;28;20038;-79
2022/05/04 11:29:19;;;;;;;6.13;1.27;;;16.30;99.90;;;;;;5010307;28;20036;-78
2022/05/04 11:31:54;;;;;;;6.22;1.67;;;15.80;99.90;;;;;;5013725;28;20431;-78
2022/05/04 11:34:25;;;;;;;5.30;1.55;;;16.20;99.90;;;;;;4992447;28;20124;-79
2022/05/04 11:36:54;;;;;;;2.05;0.60;;;16.30;99.90;;;;;;5029447;28;20040;-78
2022/05/04 11:39:25;;;;;;;2.72;0.60;;;16.90;99.90;;;;;;5010131;28;20065;-78
2022/05/04 11:41:52;;;;;;;1.95;0.50;;;17.40;99.90;;;;;;4994155;28;20513;-77
2022/05/04 11:44:22;;;;;;;2.10;0.40;;;17.30;99.90;;;;;;4997847;28;20030;-78
2022/05/04 11:46:51;;;;;;;;;;;17.70;99.90;;;;;;5014875;28;20149;-77
2022/05/04 11:49:19;;;;;;;2.28;0.65;;;18.10;99.90;;;;;;5015545;28;20277;-78
2022/05/04 11:51:45;;;;;;;2.78;1.00;;;17.80;99.90;;;;;;5016588;28;20032;-78
2022/05/04 11:54:11;;;;;;;3.55;1.23;;;17.00;99.90;;;;;;5015044;28;20045;-78
2022/05/04 11:56:36;;;;;;;4.88;1.20;;;16.70;99.90;;;;;;5016023;28;20042;-79
2022/05/04 11:59:03;;;;;;;3.90;0.90;;;17.00;99.90;;;;;;4998826;28;20052;-78
2022/05/04 12:01:29;;;;;;;5.47;1.20;;;16.70;99.90;;;;;;5015387;28;20033;-78
2022/05/04 12:03:56;;;;;;;4.47;0.80;;;16.80;99.90;;;;;;5015349;28;20492;-78
2022/05/04 12:06:22;;;;;;;3.42;0.70;;;17.60;99.90;;;;;;5012978;28;20037;-78
2022/05/04 12:08:49;;;;;;;4.43;0.60;;;17.70;99.90;;;;;;5003314;28;20103;-78
2022/05/04 12:11:16;;;;;;;2.05;0.40;;;18.10;99.90;;;;;;5018377;28;20539;-78
2022/05/04 12:13:42;;;;;;;3.40;0.70;;;18.60;99.90;;;;;;5014099;28;20073;-78
2022/05/04 12:16:09;;;;;;;3.10;0.90;;;18.30;99.90;;;;;;5036521;28;20478;-79
2022/05/04 12:18:37;;;;;;;3.85;0.93;;;18.00;99.90;;;;;;5019055;28;20033;-78
2022/05/04 12:21:08;;;;;;;5.03;1.70;;;17.90;99.90;;;;;;5018018;28;20112;-77
2022/05/04 12:23:36;;;;;;;4.85;1.13;;;17.10;99.90;;;;;;5017360;28;20038;-78
2022/05/04 12:26:02;;;;;;;1.95;0.60;;;17.50;99.90;;;;;;5032866;28;20025;-78
2022/05/04 12:28:31;;;;;;;2.20;0.60;;;18.30;99.90;;;;;;5015323;28;21794;-78
2022/05/04 12:33:42;;;;;;;4.82;1.00;;;18.70;99.90;;;;;;5017325;28;20031;-78
2022/05/04 12:36:10;;;;;;;2.63;0.70;;;17.30;99.90;;;;;;5018094;28;20029;-78
2022/05/04 12:38:39;;;;;;;4.30;1.23;;;17.40;99.90;;;;;;5035270;28;20487;-78
2022/05/04 12:41:07;;;;;;;5.22;0.95;;;17.70;99.90;;;;;;5017955;28;20044;-78
2022/05/04 12:43:34;;;;;;;3.95;0.73;;;17.40;99.90;;;;;;5017796;28;20071;-78
2022/05/04 12:46:01;;;;;;;5.00;1.05;;;18.00;99.90;;;;;;4995471;28;20042;-78
2022/05/04 12:48:27;;;;;;;6.55;2.15;;;18.00;99.90;;;;;;5014784;28;20397;-78
2022/05/04 12:50:58;;;;;;;4.60;0.90;;;17.10;99.90;;;;;;5015193;28;20030;-78
2022/05/04 12:53:25;;;;;;;2.47;0.40;;;17.40;99.90;;;;;;5011794;28;20131;-78
2022/05/04 12:58:36;;;;;;;4.30;1.02;;;17.90;99.90;;;;;;5031500;28;20765;-78
2022/05/04 13:01:05;;;;;;;4.63;1.45;;;17.20;99.90;;;;;;5015005;28;20033;-78
2022/05/04 13:03:31;;;;;;;1.92;0.50;;;17.40;99.90;;;;;;4998951;28;20072;-79
2022/05/04 13:05:57;;;;;;;1.90;0.40;;;18.40;99.90;;;;;;5000217;28;20041;-77
2022/05/04 13:08:23;;;;;;;1.48;0.43;;;19.00;99.90;;;;;;5016079;28;20038;-78
2022/05/04 13:10:50;;;;;;;2.75;0.98;;;18.90;99.90;;;;;;5016289;28;20502;-78
2022/05/04 13:13:20;;;;;;;2.35;0.75;;;18.20;99.90;;;;;;5016970;28;20057;-78
2022/05/04 13:15:52;;;;;;;4.38;0.77;;;18.20;99.90;;;;;;5001262;28;20555;-78
2022/05/04 13:18:19;;;;;;;7.13;1.00;;;18.40;99.90;;;;;;5000353;28;20037;-78
2022/05/04 13:20:45;;;;;;;5.03;0.88;;;18.40;99.90;;;;;;5016713;28;20095;-78
2022/05/04 13:23:11;;;;;;;2.60;0.70;;;17.60;99.90;;;;;;5032900;28;20017;-77
2022/05/04 13:25:36;;;;;;;3.03;0.90;;;17.90;99.90;;;;;;5001043;28;20389;-78
2022/05/04 13:28:03;;;;;;;2.63;0.90;;;17.80;99.90;;;;;;5015821;28;20030;-78
2022/05/04 13:30:29;;;;;;;2.67;0.98;;;18.10;99.90;;;;;;5016557;28;20034;-78
2022/05/04 13:32:55;;;;;;;4.28;0.90;;;17.80;99.90;;;;;;5017771;28;20036;-78